sensor_id;sensor_type;location;lat;lon;timestamp;pressure;altitude;pressure_sealevel;temperature;humidity
64844;BME280;51310;52.198;5.422;2023-07-29T00:00:57;100582.66;;;17.61;78.36
64844;BME280;51310;52.198;5.422;2023-07-29T00:03:23;100562.75;;;17.53;78.26
64844;BME280;51310;52.198;5.422;2023-07-29T00:05:49;100575.38;;;17.62;78.44
64844;BME280;51310;52.198;5.422;2023-07-29T00:08:15;100554.41;;;17.46;78.58
64844;BME280;51310;52.198;5.422;2023-07-29T00:10:41;100570.72;;;17.54;78.67
64844;BME280;51310;52.198;5.422;2023-07-29T00:13:07;100578.13;;;17.52;78.80
64844;BME280;51310;52.198;5.422;2023-07-29T00:15:33;100539.78;;;17.39;78.77
64844;BME280;51310;52.198;5.422;2023-07-29T00:17:59;100570.47;;;17.47;79.00
64844;BME280;51310;52.198;5.422;2023-07-29T00:20:25;100562.09;;;17.41;78.83
64844;BME280;51310;52.198;5.422;2023-07-29T00:22:51;100564.25;;;17.37;79.12
64844;BME280;51310;52.198;5.422;2023-07-29T00:25:20;100532.47;;;17.21;79.11
64844;BME280;51310;52.198;5.422;2023-07-29T00:27:47;100550.16;;;17.34;79.39
64844;BME280;51310;52.198;5.422;2023-07-29T00:30:13;100528.91;;;17.21;79.49
64844;BME280;51310;52.198;5.422;2023-07-29T00:32:39;100550.47;;;17.31;79.30
64844;BME280;51310;52.198;5.422;2023-07-29T00:35:05;100540.38;;;17.33;78.99
64844;BME280;51310;52.198;5.422;2023-07-29T00:37:32;100540.06;;;17.36;78.78
64844;BME280;51310;52.198;5.422;2023-07-29T00:39:57;100531.25;;;17.34;78.54
64844;BME280;51310;52.198;5.422;2023-07-29T00:42:24;100524.75;;;17.36;78.50
64844;BME280;51310;52.198;5.422;2023-07-29T00:44:50;100503.47;;;17.23;78.74
64844;BME280;51310;52.198;5.422;2023-07-29T00:47:16;100503.19;;;17.17;78.72
64844;BME280;51310;52.198;5.422;2023-07-29T00:49:47;100541.47;;;17.40;78.61
64844;BME280;51310;52.198;5.422;2023-07-29T00:52:13;100529.56;;;17.33;78.56
64844;BME280;51310;52.198;5.422;2023-07-29T00:54:39;100522.19;;;17.35;78.54
64844;BME280;51310;52.198;5.422;2023-07-29T00:57:08;100538.31;;;17.54;78.36
64844;BME280;51310;52.198;5.422;2023-07-29T00:59:37;100531.63;;;17.48;78.30
64844;BME280;51310;52.198;5.422;2023-07-29T01:02:04;100532.59;;;17.57;78.11
64844;BME280;51310;52.198;5.422;2023-07-29T01:04:31;100530.22;;;17.54;78.48
64844;BME280;51310;52.198;5.422;2023-07-29T01:10:51;100528.75;;;17.60;78.23
64844;BME280;51310;52.198;5.422;2023-07-29T01:13:49;100524.03;;;17.62;78.17
64844;BME280;51310;52.198;5.422;2023-07-29T01:16:39;100522.50;;;17.59;78.34
64844;BME280;51310;52.198;5.422;2023-07-29T01:22:39;100533.31;;;17.59;78.40
64844;BME280;51310;52.198;5.422;2023-07-29T01:25:07;100503.38;;;17.43;78.55
64844;BME280;51310;52.198;5.422;2023-07-29T01:27:33;100503.63;;;17.50;78.79
64844;BME280;51310;52.198;5.422;2023-07-29T01:29:59;100526.88;;;17.60;78.82
64844;BME280;51310;52.198;5.422;2023-07-29T01:32:38;100518.63;;;17.62;78.62
64844;BME280;51310;52.198;5.422;2023-07-29T01:40:48;100527.50;;;17.54;79.30
64844;BME280;51310;52.198;5.422;2023-07-29T01:43:16;100522.69;;;17.48;79.30
64844;BME280;51310;52.198;5.422;2023-07-29T01:45:44;100519.16;;;17.38;79.73
64844;BME280;51310;52.198;5.422;2023-07-29T01:48:10;100516.22;;;17.31;80.19
64844;BME280;51310;52.198;5.422;2023-07-29T01:50:36;100501.59;;;17.24;80.20
64844;BME280;51310;52.198;5.422;2023-07-29T01:53:02;100519.91;;;17.30;80.54
64844;BME280;51310;52.198;5.422;2023-07-29T01:55:29;100514.13;;;17.25;80.84
64844;BME280;51310;52.198;5.422;2023-07-29T01:57:55;100515.94;;;17.24;81.00
64844;BME280;51310;52.198;5.422;2023-07-29T02:00:21;100507.13;;;17.22;81.21
64844;BME280;51310;52.198;5.422;2023-07-29T02:02:47;100507.56;;;17.27;81.08
64844;BME280;51310;52.198;5.422;2023-07-29T02:05:13;100501.34;;;17.17;81.22
64844;BME280;51310;52.198;5.422;2023-07-29T02:07:39;100503.75;;;17.20;81.42
64844;BME280;51310;52.198;5.422;2023-07-29T02:10:05;100487.59;;;17.11;81.59
64844;BME280;51310;52.198;5.422;2023-07-29T02:12:32;100510.53;;;17.24;81.54
64844;BME280;51310;52.198;5.422;2023-07-29T02:14:57;100512.25;;;17.25;81.64
64844;BME280;51310;52.198;5.422;2023-07-29T02:17:23;100481.91;;;17.14;81.55
64844;BME280;51310;52.198;5.422;2023-07-29T02:19:49;100503.72;;;17.30;81.64
64844;BME280;51310;52.198;5.422;2023-07-29T02:22:17;100500.19;;;17.30;81.69
64844;BME280;51310;52.198;5.422;2023-07-29T02:24:44;100496.91;;;17.26;81.75
64844;BME280;51310;52.198;5.422;2023-07-29T02:27:11;100481.47;;;17.18;81.91
64844;BME280;51310;52.198;5.422;2023-07-29T02:29:37;100468.69;;;17.11;81.97
64844;BME280;51310;52.198;5.422;2023-07-29T02:32:03;100492.97;;;17.20;82.15
64844;BME280;51310;52.198;5.422;2023-07-29T02:34:30;100488.16;;;17.14;82.34
64844;BME280;51310;52.198;5.422;2023-07-29T02:36:56;100468.03;;;16.99;82.47
64844;BME280;51310;52.198;5.422;2023-07-29T02:39:22;100499.22;;;17.11;82.77
64844;BME280;51310;52.198;5.422;2023-07-29T02:41:48;100491.44;;;17.08;82.81
64844;BME280;51310;52.198;5.422;2023-07-29T02:44:15;100493.41;;;17.06;82.91
64844;BME280;51310;52.198;5.422;2023-07-29T02:46:41;100479.25;;;16.94;82.93
64844;BME280;51310;52.198;5.422;2023-07-29T02:49:07;100494.44;;;17.05;83.05
64844;BME280;51310;52.198;5.422;2023-07-29T02:51:33;100474.00;;;16.93;83.04
64844;BME280;51310;52.198;5.422;2023-07-29T02:53:59;100485.91;;;17.00;83.12
64844;BME280;51310;52.198;5.422;2023-07-29T02:56:25;100494.00;;;17.00;83.26
64844;BME280;51310;52.198;5.422;2023-07-29T02:58:51;100489.03;;;16.95;83.21
64844;BME280;51310;52.198;5.422;2023-07-29T03:01:18;100467.09;;;16.80;83.37
64844;BME280;51310;52.198;5.422;2023-07-29T03:03:44;100490.63;;;16.88;83.37
64844;BME280;51310;52.198;5.422;2023-07-29T03:06:13;100486.97;;;16.79;83.37
64844;BME280;51310;52.198;5.422;2023-07-29T03:08:40;100479.28;;;16.75;83.50
64844;BME280;51310;52.198;5.422;2023-07-29T03:11:10;100495.47;;;16.75;83.60
64844;BME280;51310;52.198;5.422;2023-07-29T03:13:39;100482.41;;;16.70;83.70
64844;BME280;51310;52.198;5.422;2023-07-29T03:16:14;100483.69;;;16.66;83.86
64844;BME280;51310;52.198;5.422;2023-07-29T03:18:42;100476.03;;;16.61;83.65
64844;BME280;51310;52.198;5.422;2023-07-29T03:21:10;100465.53;;;16.58;83.61
64844;BME280;51310;52.198;5.422;2023-07-29T03:23:37;100474.34;;;16.60;83.74
64844;BME280;51310;52.198;5.422;2023-07-29T03:26:04;100475.19;;;16.61;83.47
64844;BME280;51310;52.198;5.422;2023-07-29T03:28:39;100462.97;;;16.57;83.57
64844;BME280;51310;52.198;5.422;2023-07-29T03:31:08;100477.16;;;16.59;83.19
64844;BME280;51310;52.198;5.422;2023-07-29T03:33:34;100477.16;;;16.59;83.15
64844;BME280;51310;52.198;5.422;2023-07-29T03:36:01;100481.59;;;16.60;83.04
64844;BME280;51310;52.198;5.422;2023-07-29T03:38:27;100453.34;;;16.44;82.97
64844;BME280;51310;52.198;5.422;2023-07-29T03:40:53;100451.38;;;16.47;82.76
64844;BME280;51310;52.198;5.422;2023-07-29T03:43:19;100467.38;;;16.58;82.74
64844;BME280;51310;52.198;5.422;2023-07-29T03:45:45;100456.19;;;16.53;82.51
64844;BME280;51310;52.198;5.422;2023-07-29T03:48:11;100457.47;;;16.49;82.43
64844;BME280;51310;52.198;5.422;2023-07-29T03:50:37;100476.19;;;16.60;82.32
64844;BME280;51310;52.198;5.422;2023-07-29T03:53:04;100469.25;;;16.57;82.17
64844;BME280;51310;52.198;5.422;2023-07-29T03:55:31;100466.38;;;16.59;82.07
64844;BME280;51310;52.198;5.422;2023-07-29T03:57:59;100468.38;;;16.57;81.73
64844;BME280;51310;52.198;5.422;2023-07-29T04:00:26;100470.09;;;16.58;81.74
64844;BME280;51310;52.198;5.422;2023-07-29T04:02:52;100461.84;;;16.50;81.50
64844;BME280;51310;52.198;5.422;2023-07-29T04:05:19;100485.97;;;16.61;81.22
64844;BME280;51310;52.198;5.422;2023-07-29T04:07:45;100473.31;;;16.61;80.92
64844;BME280;51310;52.198;5.422;2023-07-29T04:10:11;100473.75;;;16.57;80.89
64844;BME280;51310;52.198;5.422;2023-07-29T04:12:37;100486.28;;;16.58;80.89
64844;BME280;51310;52.198;5.422;2023-07-29T04:15:04;100498.47;;;16.62;80.58
64844;BME280;51310;52.198;5.422;2023-07-29T04:17:30;100490.53;;;16.60;80.62
64844;BME280;51310;52.198;5.422;2023-07-29T04:19:56;100475.47;;;16.48;80.44
64844;BME280;51310;52.198;5.422;2023-07-29T04:22:22;100491.38;;;16.61;80.10
64844;BME280;51310;52.198;5.422;2023-07-29T04:24:48;100455.75;;;16.48;80.10
64844;BME280;51310;52.198;5.422;2023-07-29T04:27:14;100467.09;;;16.61;80.20
64844;BME280;51310;52.198;5.422;2023-07-29T04:29:40;100462.13;;;16.56;80.38
64844;BME280;51310;52.198;5.422;2023-07-29T04:32:06;100468.09;;;16.60;80.32
64844;BME280;51310;52.198;5.422;2023-07-29T04:34:32;100462.69;;;16.60;80.08
64844;BME280;51310;52.198;5.422;2023-07-29T04:36:58;100473.06;;;16.64;80.26
64844;BME280;51310;52.198;5.422;2023-07-29T04:39:24;100459.16;;;16.50;80.05
64844;BME280;51310;52.198;5.422;2023-07-29T04:41:50;100461.84;;;16.50;80.12
64844;BME280;51310;52.198;5.422;2023-07-29T04:44:16;100465.13;;;16.43;80.15
64844;BME280;51310;52.198;5.422;2023-07-29T04:46:42;100483.41;;;16.59;80.19
64844;BME280;51310;52.198;5.422;2023-07-29T04:49:07;100477.47;;;16.56;80.32
64844;BME280;51310;52.198;5.422;2023-07-29T04:51:33;100467.53;;;16.47;80.09
64844;BME280;51310;52.198;5.422;2023-07-29T04:53:59;100479.75;;;16.51;80.37
64844;BME280;51310;52.198;5.422;2023-07-29T04:56:26;100469.53;;;16.44;80.34
64844;BME280;51310;52.198;5.422;2023-07-29T04:58:52;100479.31;;;16.45;80.46
64844;BME280;51310;52.198;5.422;2023-07-29T05:01:18;100461.59;;;16.33;80.35
64844;BME280;51310;52.198;5.422;2023-07-29T05:03:44;100483.72;;;16.47;80.48
64844;BME280;51310;52.198;5.422;2023-07-29T05:06:10;100460.75;;;16.33;80.50
64844;BME280;51310;52.198;5.422;2023-07-29T05:08:36;100471.22;;;16.45;80.29
64844;BME280;51310;52.198;5.422;2023-07-29T05:11:02;100494.78;;;16.53;80.26
64844;BME280;51310;52.198;5.422;2023-07-29T05:13:28;100493.53;;;16.57;80.19
64844;BME280;51310;52.198;5.422;2023-07-29T05:15:54;100475.63;;;16.47;79.85
64844;BME280;51310;52.198;5.422;2023-07-29T05:18:20;100491.94;;;16.64;79.74
64844;BME280;51310;52.198;5.422;2023-07-29T05:20:47;100498.59;;;16.70;79.76
64844;BME280;51310;52.198;5.422;2023-07-29T05:23:13;100482.28;;;16.62;79.44
64844;BME280;51310;52.198;5.422;2023-07-29T05:25:39;100499.34;;;16.82;79.10
64844;BME280;51310;52.198;5.422;2023-07-29T05:28:05;100487.66;;;16.72;78.87
64844;BME280;51310;52.198;5.422;2023-07-29T05:30:33;100507.25;;;16.93;78.63
64844;BME280;51310;52.198;5.422;2023-07-29T05:33:03;100502.09;;;17.00;78.39
64844;BME280;51310;52.198;5.422;2023-07-29T05:35:35;100487.63;;;17.01;78.13
64844;BME280;51310;52.198;5.422;2023-07-29T05:38:01;100494.13;;;17.08;77.89
64844;BME280;51310;52.198;5.422;2023-07-29T05:40:28;100507.88;;;17.15;77.68
64844;BME280;51310;52.198;5.422;2023-07-29T05:42:54;100513.94;;;17.26;77.55
64844;BME280;51310;52.198;5.422;2023-07-29T05:45:21;100505.84;;;17.26;77.59
64844;BME280;51310;52.198;5.422;2023-07-29T05:47:47;100503.66;;;17.40;77.32
64844;BME280;51310;52.198;5.422;2023-07-29T05:50:13;100492.78;;;17.22;76.94
64844;BME280;51310;52.198;5.422;2023-07-29T05:52:39;100498.91;;;17.24;77.04
64844;BME280;51310;52.198;5.422;2023-07-29T05:55:05;100509.97;;;17.31;77.07
64844;BME280;51310;52.198;5.422;2023-07-29T05:57:31;100518.91;;;17.41;77.01
64844;BME280;51310;52.198;5.422;2023-07-29T05:59:57;100474.91;;;17.21;77.16
64844;BME280;51310;52.198;5.422;2023-07-29T06:02:23;100511.28;;;17.54;77.12
64844;BME280;51310;52.198;5.422;2023-07-29T06:04:49;100493.69;;;17.40;76.57
64844;BME280;51310;52.198;5.422;2023-07-29T06:07:15;100518.63;;;17.62;76.52
64844;BME280;51310;52.198;5.422;2023-07-29T06:09:41;100514.28;;;17.79;76.31
64844;BME280;51310;52.198;5.422;2023-07-29T06:12:07;100519.34;;;17.92;75.68
64844;BME280;51310;52.198;5.422;2023-07-29T06:14:34;100506.66;;;17.92;75.54
64844;BME280;51310;52.198;5.422;2023-07-29T06:16:59;100499.69;;;17.99;75.09
64844;BME280;51310;52.198;5.422;2023-07-29T06:19:26;100507.56;;;18.10;74.87
64844;BME280;51310;52.198;5.422;2023-07-29T06:21:55;100517.94;;;18.33;75.01
64844;BME280;51310;52.198;5.422;2023-07-29T06:24:21;100496.50;;;18.40;74.47
64844;BME280;51310;52.198;5.422;2023-07-29T06:26:47;100518.56;;;18.71;73.87
64844;BME280;51310;52.198;5.422;2023-07-29T06:29:13;100495.91;;;18.72;73.09
64844;BME280;51310;52.198;5.422;2023-07-29T06:31:39;100520.69;;;18.77;73.17
64844;BME280;51310;52.198;5.422;2023-07-29T06:34:05;100510.75;;;18.68;73.29
64844;BME280;51310;52.198;5.422;2023-07-29T06:36:31;100518.50;;;18.63;73.45
64844;BME280;51310;52.198;5.422;2023-07-29T06:38:57;100519.91;;;18.67;73.63
64844;BME280;51310;52.198;5.422;2023-07-29T06:41:22;100516.88;;;18.70;73.26
64844;BME280;51310;52.198;5.422;2023-07-29T06:43:48;100518.56;;;18.71;73.61
64844;BME280;51310;52.198;5.422;2023-07-29T06:46:14;100513.94;;;18.81;73.53
64844;BME280;51310;52.198;5.422;2023-07-29T06:48:40;100525.34;;;18.93;72.98
64844;BME280;51310;52.198;5.422;2023-07-29T06:51:06;100521.66;;;18.94;72.85
64844;BME280;51310;52.198;5.422;2023-07-29T06:53:32;100538.91;;;19.19;72.51
64844;BME280;51310;52.198;5.422;2023-07-29T06:55:58;100518.63;;;19.23;71.82
64844;BME280;51310;52.198;5.422;2023-07-29T06:58:24;100529.47;;;19.31;71.72
64844;BME280;51310;52.198;5.422;2023-07-29T07:00:50;100520.72;;;19.38;71.72
64844;BME280;51310;52.198;5.422;2023-07-29T07:03:16;100533.50;;;19.53;71.15
64844;BME280;51310;52.198;5.422;2023-07-29T07:05:42;100540.72;;;19.45;71.44
64844;BME280;51310;52.198;5.422;2023-07-29T07:08:08;100528.78;;;19.21;71.77
64844;BME280;51310;52.198;5.422;2023-07-29T07:10:33;100539.75;;;19.20;72.27
64844;BME280;51310;52.198;5.422;2023-07-29T07:13:00;100539.28;;;19.24;72.54
64844;BME280;51310;52.198;5.422;2023-07-29T07:15:26;100532.25;;;19.40;72.08
64844;BME280;51310;52.198;5.422;2023-07-29T07:17:52;100530.63;;;19.55;71.72
64844;BME280;51310;52.198;5.422;2023-07-29T07:20:18;100529.66;;;19.64;70.98
64844;BME280;51310;52.198;5.422;2023-07-29T07:22:44;100515.16;;;19.73;70.96
64844;BME280;51310;52.198;5.422;2023-07-29T07:25:10;100534.91;;;20.00;70.42
64844;BME280;51310;52.198;5.422;2023-07-29T07:27:36;100525.34;;;19.88;70.14
64844;BME280;51310;52.198;5.422;2023-07-29T07:30:03;100536.19;;;19.88;70.42
64844;BME280;51310;52.198;5.422;2023-07-29T07:32:30;100543.16;;;19.56;71.13
64844;BME280;51310;52.198;5.422;2023-07-29T07:34:56;100531.22;;;19.41;71.96
64844;BME280;51310;52.198;5.422;2023-07-29T07:37:22;100531.03;;;19.34;71.80
64844;BME280;51310;52.198;5.422;2023-07-29T07:39:47;100563.38;;;19.35;71.86
64844;BME280;51310;52.198;5.422;2023-07-29T07:42:13;100552.59;;;19.44;71.94
64844;BME280;51310;52.198;5.422;2023-07-29T07:44:39;100550.94;;;19.51;71.93
64844;BME280;51310;52.198;5.422;2023-07-29T07:47:05;100523.50;;;19.54;71.70
64844;BME280;51310;52.198;5.422;2023-07-29T07:49:31;100528.91;;;19.54;72.37
64844;BME280;51310;52.198;5.422;2023-07-29T07:51:57;100542.25;;;19.73;72.16
64844;BME280;51310;52.198;5.422;2023-07-29T07:54:23;100527.56;;;19.84;74.16
64844;BME280;51310;52.198;5.422;2023-07-29T07:56:49;100549.31;;;20.09;73.49
64844;BME280;51310;52.198;5.422;2023-07-29T07:59:15;100528.81;;;20.06;71.86
64844;BME280;51310;52.198;5.422;2023-07-29T08:01:41;100555.78;;;20.16;71.42
64844;BME280;51310;52.198;5.422;2023-07-29T08:04:07;100553.22;;;20.06;70.39
64844;BME280;51310;52.198;5.422;2023-07-29T08:06:33;100555.25;;;20.12;71.99
64844;BME280;51310;52.198;5.422;2023-07-29T08:08:59;100556.81;;;20.23;71.56
64844;BME280;51310;52.198;5.422;2023-07-29T08:11:25;100551.91;;;20.27;71.32
64844;BME280;51310;52.198;5.422;2023-07-29T08:13:52;100553.25;;;20.31;70.37
64844;BME280;51310;52.198;5.422;2023-07-29T08:16:18;100536.94;;;20.06;70.11
64844;BME280;51310;52.198;5.422;2023-07-29T08:18:43;100553.22;;;20.14;70.02
64844;BME280;51310;52.198;5.422;2023-07-29T08:21:10;100524.41;;;20.22;69.80
64844;BME280;51310;52.198;5.422;2023-07-29T08:23:36;100552.94;;;20.34;69.47
64844;BME280;51310;52.198;5.422;2023-07-29T08:26:05;100549.69;;;20.22;69.17
64844;BME280;51310;52.198;5.422;2023-07-29T08:28:39;100552.50;;;19.96;69.75
64844;BME280;51310;52.198;5.422;2023-07-29T08:31:06;100565.72;;;19.91;70.39
64844;BME280;51310;52.198;5.422;2023-07-29T08:33:32;100530.81;;;19.96;70.01
64844;BME280;51310;52.198;5.422;2023-07-29T08:35:59;100551.19;;;20.16;69.54
64844;BME280;51310;52.198;5.422;2023-07-29T08:38:25;100540.53;;;20.23;69.21
64844;BME280;51310;52.198;5.422;2023-07-29T08:41:14;100558.53;;;20.24;68.39
64844;BME280;51310;52.198;5.422;2023-07-29T08:44:18;100548.00;;;20.21;68.92
64844;BME280;51310;52.198;5.422;2023-07-29T08:46:48;100554.63;;;20.35;68.89
64844;BME280;51310;52.198;5.422;2023-07-29T08:49:16;100541.63;;;20.63;68.15
64844;BME280;51310;52.198;5.422;2023-07-29T08:51:46;100545.84;;;20.82;67.00
64844;BME280;51310;52.198;5.422;2023-07-29T08:54:16;100554.66;;;21.00;66.28
64844;BME280;51310;52.198;5.422;2023-07-29T08:56:43;100564.34;;;20.87;66.15
64844;BME280;51310;52.198;5.422;2023-07-29T08:59:10;100558.25;;;20.76;67.00
64844;BME280;51310;52.198;5.422;2023-07-29T09:01:41;100557.56;;;20.83;67.29
64844;BME280;51310;52.198;5.422;2023-07-29T09:04:07;100540.44;;;20.66;67.27
64844;BME280;51310;52.198;5.422;2023-07-29T09:06:35;100561.31;;;20.65;67.41
64844;BME280;51310;52.198;5.422;2023-07-29T09:09:03;100564.53;;;20.61;67.84
64844;BME280;51310;52.198;5.422;2023-07-29T09:11:30;100576.09;;;20.63;68.34
64844;BME280;51310;52.198;5.422;2023-07-29T09:13:56;100565.53;;;20.51;68.19
64844;BME280;51310;52.198;5.422;2023-07-29T09:16:23;100577.34;;;20.42;68.22
64844;BME280;51310;52.198;5.422;2023-07-29T09:18:51;100567.31;;;20.26;69.14
64844;BME280;51310;52.198;5.422;2023-07-29T09:21:23;100574.63;;;20.26;69.52
64844;BME280;51310;52.198;5.422;2023-07-29T09:23:54;100564.47;;;20.44;69.91
64844;BME280;51310;52.198;5.422;2023-07-29T09:26:26;100569.78;;;20.70;69.04
64844;BME280;51310;52.198;5.422;2023-07-29T09:28:58;100575.03;;;20.80;68.33
64844;BME280;51310;52.198;5.422;2023-07-29T09:31:27;100549.94;;;20.62;67.76
64844;BME280;51310;52.198;5.422;2023-07-29T09:34:03;100560.13;;;20.84;67.12
64844;BME280;51310;52.198;5.422;2023-07-29T09:36:33;100549.09;;;20.77;66.92
64844;BME280;51310;52.198;5.422;2023-07-29T09:39:00;100555.19;;;20.96;66.66
64844;BME280;51310;52.198;5.422;2023-07-29T09:41:28;100560.59;;;21.12;66.06
64844;BME280;51310;52.198;5.422;2023-07-29T09:43:58;100562.25;;;21.30;65.38
64844;BME280;51310;52.198;5.422;2023-07-29T09:46:36;100553.25;;;21.46;64.27
64844;BME280;51310;52.198;5.422;2023-07-29T09:49:04;100547.09;;;21.52;63.75
64844;BME280;51310;52.198;5.422;2023-07-29T09:51:32;100557.50;;;21.32;63.89
64844;BME280;51310;52.198;5.422;2023-07-29T09:54:04;100563.13;;;21.22;63.95
64844;BME280;51310;52.198;5.422;2023-07-29T09:56:30;100558.72;;;21.05;65.20
64844;BME280;51310;52.198;5.422;2023-07-29T09:58:57;100561.63;;;20.95;65.67
64844;BME280;51310;52.198;5.422;2023-07-29T10:01:24;100568.44;;;20.91;65.75
64844;BME280;51310;52.198;5.422;2023-07-29T10:03:50;100559.78;;;20.79;66.06
64844;BME280;51310;52.198;5.422;2023-07-29T10:06:18;100563.53;;;20.70;66.42
64844;BME280;51310;52.198;5.422;2023-07-29T10:08:44;100564.03;;;20.65;66.87
64844;BME280;51310;52.198;5.422;2023-07-29T10:11:12;100566.56;;;20.75;67.25
64844;BME280;51310;52.198;5.422;2023-07-29T10:13:39;100563.69;;;20.68;67.08
64844;BME280;51310;52.198;5.422;2023-07-29T10:16:05;100572.34;;;20.88;66.67
64844;BME280;51310;52.198;5.422;2023-07-29T10:18:33;100582.84;;;21.16;66.51
64844;BME280;51310;52.198;5.422;2023-07-29T10:21:00;100553.97;;;21.15;66.14
64844;BME280;51310;52.198;5.422;2023-07-29T10:23:32;100566.00;;;21.29;65.87
64844;BME280;51310;52.198;5.422;2023-07-29T10:26:05;100559.53;;;21.30;65.27
64844;BME280;51310;52.198;5.422;2023-07-29T10:28:40;100577.63;;;21.70;63.94
64844;BME280;51310;52.198;5.422;2023-07-29T10:31:12;100575.66;;;21.56;64.35
64844;BME280;51310;52.198;5.422;2023-07-29T10:33:38;100561.72;;;21.34;65.06
64844;BME280;51310;52.198;5.422;2023-07-29T10:36:05;100581.34;;;20.97;65.20
64844;BME280;51310;52.198;5.422;2023-07-29T10:38:31;100586.91;;;20.87;66.08
64844;BME280;51310;52.198;5.422;2023-07-29T10:40:59;100592.31;;;20.54;67.96
64844;BME280;51310;52.198;5.422;2023-07-29T10:43:34;100593.22;;;20.04;70.62
64844;BME280;51310;52.198;5.422;2023-07-29T10:46:19;100596.66;;;19.46;74.32
64844;BME280;51310;52.198;5.422;2023-07-29T10:48:57;100595.91;;;19.09;76.44
64844;BME280;51310;52.198;5.422;2023-07-29T10:51:35;100588.22;;;19.05;77.28
64844;BME280;51310;52.198;5.422;2023-07-29T10:54:09;100563.19;;;19.03;77.57
64844;BME280;51310;52.198;5.422;2023-07-29T10:56:41;100573.09;;;19.20;76.59
64844;BME280;51310;52.198;5.422;2023-07-29T11:01:39;100579.22;;;19.22;76.73
64844;BME280;51310;52.198;5.422;2023-07-29T11:10:05;100593.22;;;19.70;76.99
64844;BME280;51310;52.198;5.422;2023-07-29T11:12:51;100589.94;;;19.92;76.82
64844;BME280;51310;52.198;5.422;2023-07-29T11:15:30;100595.25;;;20.02;76.14
64844;BME280;51310;52.198;5.422;2023-07-29T11:18:01;100571.81;;;19.93;76.12
64844;BME280;51310;52.198;5.422;2023-07-29T11:20:30;100577.25;;;19.93;75.62
64844;BME280;51310;52.198;5.422;2023-07-29T11:23:02;100582.44;;;20.29;76.08
64844;BME280;51310;52.198;5.422;2023-07-29T11:25:31;100596.66;;;20.31;76.12
64844;BME280;51310;52.198;5.422;2023-07-29T11:28:00;100594.09;;;20.21;75.19
64844;BME280;51310;52.198;5.422;2023-07-29T11:30:26;100592.38;;;20.12;74.46
64844;BME280;51310;52.198;5.422;2023-07-29T11:32:54;100583.72;;;20.08;74.90
64844;BME280;51310;52.198;5.422;2023-07-29T11:35:23;100596.59;;;19.98;75.10
64844;BME280;51310;52.198;5.422;2023-07-29T11:37:51;100596.53;;;19.82;75.03
64844;BME280;51310;52.198;5.422;2023-07-29T11:40:22;100595.16;;;19.78;75.40
64844;BME280;51310;52.198;5.422;2023-07-29T11:42:51;100579.00;;;19.42;75.16
64844;BME280;51310;52.198;5.422;2023-07-29T11:45:20;100599.38;;;19.54;75.79
64844;BME280;51310;52.198;5.422;2023-07-29T11:47:46;100596.94;;;19.43;75.92
64844;BME280;51310;52.198;5.422;2023-07-29T11:50:14;100599.44;;;19.36;76.31
64844;BME280;51310;52.198;5.422;2023-07-29T11:52:45;100577.56;;;19.29;76.79
64844;BME280;51310;52.198;5.422;2023-07-29T11:55:14;100595.16;;;19.51;76.26
64844;BME280;51310;52.198;5.422;2023-07-29T11:57:42;100595.69;;;19.55;76.00
64844;BME280;51310;52.198;5.422;2023-07-29T12:00:10;100588.13;;;19.67;75.68
64844;BME280;51310;52.198;5.422;2023-07-29T12:02:42;100572.69;;;19.67;75.25
64844;BME280;51310;52.198;5.422;2023-07-29T12:05:13;100582.72;;;20.09;74.92
64844;BME280;51310;52.198;5.422;2023-07-29T12:07:42;100583.63;;;20.34;73.60
64844;BME280;51310;52.198;5.422;2023-07-29T12:10:10;100585.91;;;20.64;74.11
64844;BME280;51310;52.198;5.422;2023-07-29T12:12:47;100579.13;;;20.92;72.51
64844;BME280;51310;52.198;5.422;2023-07-29T12:15:26;100559.09;;;21.02;72.56
64844;BME280;51310;52.198;5.422;2023-07-29T12:17:58;100585.00;;;21.53;71.23
64844;BME280;51310;52.198;5.422;2023-07-29T12:20:26;100579.56;;;21.53;69.32
64844;BME280;51310;52.198;5.422;2023-07-29T12:22:57;100587.56;;;21.94;69.33
64844;BME280;51310;52.198;5.422;2023-07-29T12:25:28;100570.06;;;21.41;68.10
64844;BME280;51310;52.198;5.422;2023-07-29T12:27:54;100586.22;;;21.51;68.85
64844;BME280;51310;52.198;5.422;2023-07-29T12:30:22;100585.47;;;21.57;67.88
64844;BME280;51310;52.198;5.422;2023-07-29T12:32:48;100567.84;;;21.36;67.79
64844;BME280;51310;52.198;5.422;2023-07-29T12:35:14;100559.03;;;21.42;67.92
64844;BME280;51310;52.198;5.422;2023-07-29T12:37:41;100562.78;;;21.41;67.89
64844;BME280;51310;52.198;5.422;2023-07-29T12:40:21;100570.25;;;21.23;68.53
64844;BME280;51310;52.198;5.422;2023-07-29T12:42:50;100574.69;;;21.24;68.89
64844;BME280;51310;52.198;5.422;2023-07-29T12:45:17;100578.03;;;21.34;68.28
64844;BME280;51310;52.198;5.422;2023-07-29T12:47:43;100568.19;;;21.50;67.66
64844;BME280;51310;52.198;5.422;2023-07-29T12:50:10;100566.13;;;21.60;67.72
64844;BME280;51310;52.198;5.422;2023-07-29T12:52:36;100571.88;;;21.57;67.40
64844;BME280;51310;52.198;5.422;2023-07-29T12:55:02;100575.19;;;21.83;67.69
64844;BME280;51310;52.198;5.422;2023-07-29T12:57:28;100566.88;;;22.16;66.91
64844;BME280;51310;52.198;5.422;2023-07-29T12:59:54;100564.25;;;22.31;66.78
64844;BME280;51310;52.198;5.422;2023-07-29T13:02:20;100568.69;;;22.32;64.88
64844;BME280;51310;52.198;5.422;2023-07-29T13:04:46;100577.31;;;22.36;65.56
64844;BME280;51310;52.198;5.422;2023-07-29T13:07:12;100569.59;;;22.48;64.59
64844;BME280;51310;52.198;5.422;2023-07-29T13:09:38;100572.88;;;22.43;64.74
64844;BME280;51310;52.198;5.422;2023-07-29T13:12:04;100567.03;;;22.23;64.88
64844;BME280;51310;52.198;5.422;2023-07-29T13:14:30;100561.19;;;21.95;64.36